Albert City, Iowa
Current Conditions -  °F | °C
As of 6:35 PM on Friday 31 Oct 2014 (Local Time) from KSLB Reporting Station
Clear Clear  
Wind Chill: 26°   Ceiling: Unl
Heat Index: 32°   Visibility: 10mi
Dew Point: 14°   Wind: 6mph
Humidity: 47%   Direction: 30°NNE
Pressure: 30.47"   Gusts: NA
Location:  42.78°N, 94.95°W
Report Text: KSLB 312335Z AUTO 03005KT 10SM CLR 00/M10 A3047 RMK AO2
Loading
Personal Weather Stations






























Interactive Weather Map New forecast layout! Learn more

10-Day Weather Forecast

Advertisements
Track Severe Weather on mobile